sensor_id;sensor_type;location;lat;lon;timestamp;temperature;humidity
5796;DHT22;2924;51.458;7.046;2023-01-19T00:00:12;1.00;99.90
5796;DHT22;2924;51.458;7.046;2023-01-19T00:02:39;1.00;99.90
5796;DHT22;2924;51.458;7.046;2023-01-19T00:05:07;1.00;99.90
5796;DHT22;2924;51.458;7.046;2023-01-19T00:07:33;0.90;99.90
5796;DHT22;2924;51.458;7.046;2023-01-19T00:09:59;0.90;99.90
5796;DHT22;2924;51.458;7.046;2023-01-19T00:12:25;0.80;99.90
5796;DHT22;2924;51.458;7.046;2023-01-19T00:14:50;0.70;99.90
5796;DHT22;2924;51.458;7.046;2023-01-19T00:17:16;0.70;99.90
5796;DHT22;2924;51.458;7.046;2023-01-19T00:19:42;0.80;99.90
5796;DHT22;2924;51.458;7.046;2023-01-19T00:22:07;0.90;99.90
5796;DHT22;2924;51.458;7.046;2023-01-19T00:24:33;0.90;99.90
5796;DHT22;2924;51.458;7.046;2023-01-19T00:26:59;1.00;99.90
5796;DHT22;2924;51.458;7.046;2023-01-19T00:29:28;0.90;99.90
5796;DHT22;2924;51.458;7.046;2023-01-19T00:31:58;1.00;99.90
5796;DHT22;2924;51.458;7.046;2023-01-19T00:34:24;1.00;99.90
5796;DHT22;2924;51.458;7.046;2023-01-19T00:36:50;1.00;99.90
5796;DHT22;2924;51.458;7.046;2023-01-19T00:39:16;1.00;99.90
5796;DHT22;2924;51.458;7.046;2023-01-19T00:41:41;1.10;99.90
5796;DHT22;2924;51.458;7.046;2023-01-19T00:44:26;1.00;99.90
5796;DHT22;2924;51.458;7.046;2023-01-19T00:46:51;1.10;99.90
5796;DHT22;2924;51.458;7.046;2023-01-19T00:49:17;1.10;99.90
5796;DHT22;2924;51.458;7.046;2023-01-19T00:51:43;1.10;99.90
5796;DHT22;2924;51.458;7.046;2023-01-19T00:54:08;1.10;99.90
5796;DHT22;2924;51.458;7.046;2023-01-19T00:56:35;1.00;99.90
5796;DHT22;2924;51.458;7.046;2023-01-19T00:59:01;1.00;99.90
5796;DHT22;2924;51.458;7.046;2023-01-19T01:01:27;1.10;99.90
5796;DHT22;2924;51.458;7.046;2023-01-19T01:03:52;1.10;99.90
5796;DHT22;2924;51.458;7.046;2023-01-19T01:06:21;1.10;99.90
5796;DHT22;2924;51.458;7.046;2023-01-19T01:08:47;1.00;99.90
5796;DHT22;2924;51.458;7.046;2023-01-19T01:11:12;1.00;99.90
5796;DHT22;2924;51.458;7.046;2023-01-19T01:13:38;1.10;99.90
5796;DHT22;2924;51.458;7.046;2023-01-19T01:16:04;1.10;99.90
5796;DHT22;2924;51.458;7.046;2023-01-19T01:18:31;1.10;99.90
5796;DHT22;2924;51.458;7.046;2023-01-19T01:21:04;1.00;99.90
5796;DHT22;2924;51.458;7.046;2023-01-19T01:23:31;1.00;99.90
5796;DHT22;2924;51.458;7.046;2023-01-19T01:25:56;1.00;99.90
5796;DHT22;2924;51.458;7.046;2023-01-19T01:28:22;0.90;99.90
5796;DHT22;2924;51.458;7.046;2023-01-19T01:30:52;0.90;99.90
5796;DHT22;2924;51.458;7.046;2023-01-19T01:33:18;0.90;99.90
5796;DHT22;2924;51.458;7.046;2023-01-19T01:35:44;0.90;99.90
5796;DHT22;2924;51.458;7.046;2023-01-19T01:38:10;0.90;99.90
5796;DHT22;2924;51.458;7.046;2023-01-19T01:40:38;1.00;99.90
5796;DHT22;2924;51.458;7.046;2023-01-19T01:43:10;1.00;99.90
5796;DHT22;2924;51.458;7.046;2023-01-19T01:45:38;1.00;99.90
5796;DHT22;2924;51.458;7.046;2023-01-19T01:48:23;1.00;99.90
5796;DHT22;2924;51.458;7.046;2023-01-19T01:51:06;1.00;99.90
5796;DHT22;2924;51.458;7.046;2023-01-19T01:56:43;1.00;99.90
5796;DHT22;2924;51.458;7.046;2023-01-19T01:59:20;1.00;99.90
5796;DHT22;2924;51.458;7.046;2023-01-19T02:02:03;1.00;99.90
5796;DHT22;2924;51.458;7.046;2023-01-19T02:04:52;1.00;99.90
5796;DHT22;2924;51.458;7.046;2023-01-19T02:10:24;1.00;99.90
5796;DHT22;2924;51.458;7.046;2023-01-19T02:13:08;1.00;99.90
5796;DHT22;2924;51.458;7.046;2023-01-19T02:15:51;1.10;99.90
5796;DHT22;2924;51.458;7.046;2023-01-19T02:18:21;1.10;99.90
5796;DHT22;2924;51.458;7.046;2023-01-19T02:23:52;1.10;99.90
5796;DHT22;2924;51.458;7.046;2023-01-19T02:26:21;1.20;99.90
5796;DHT22;2924;51.458;7.046;2023-01-19T02:28:51;1.10;99.90
5796;DHT22;2924;51.458;7.046;2023-01-19T02:31:17;1.20;99.90
5796;DHT22;2924;51.458;7.046;2023-01-19T02:33:44;1.10;99.90
5796;DHT22;2924;51.458;7.046;2023-01-19T02:36:11;1.10;99.90
5796;DHT22;2924;51.458;7.046;2023-01-19T02:38:40;1.10;99.90
5796;DHT22;2924;51.458;7.046;2023-01-19T02:41:11;1.00;99.90
5796;DHT22;2924;51.458;7.046;2023-01-19T02:43:37;1.00;99.90
5796;DHT22;2924;51.458;7.046;2023-01-19T02:46:04;0.90;99.90
5796;DHT22;2924;51.458;7.046;2023-01-19T02:48:30;0.90;99.90
5796;DHT22;2924;51.458;7.046;2023-01-19T02:51:17;0.90;99.90
5796;DHT22;2924;51.458;7.046;2023-01-19T02:59:53;1.00;99.90
5796;DHT22;2924;51.458;7.046;2023-01-19T03:02:33;1.00;99.90
5796;DHT22;2924;51.458;7.046;2023-01-19T03:13:02;1.10;99.90
5796;DHT22;2924;51.458;7.046;2023-01-19T03:15:41;1.10;99.90
5796;DHT22;2924;51.458;7.046;2023-01-19T03:18:10;1.10;99.90
5796;DHT22;2924;51.458;7.046;2023-01-19T03:20:37;1.00;99.90
5796;DHT22;2924;51.458;7.046;2023-01-19T03:23:09;1.00;99.90
5796;DHT22;2924;51.458;7.046;2023-01-19T03:25:38;0.90;99.90
5796;DHT22;2924;51.458;7.046;2023-01-19T03:28:05;1.00;99.90
5796;DHT22;2924;51.458;7.046;2023-01-19T03:30:37;1.10;99.90
5796;DHT22;2924;51.458;7.046;2023-01-19T03:33:08;1.10;99.90
5796;DHT22;2924;51.458;7.046;2023-01-19T03:35:40;1.00;99.90
5796;DHT22;2924;51.458;7.046;2023-01-19T03:38:16;1.00;99.90
5796;DHT22;2924;51.458;7.046;2023-01-19T03:40:44;1.00;99.90
5796;DHT22;2924;51.458;7.046;2023-01-19T03:43:13;1.00;99.90
5796;DHT22;2924;51.458;7.046;2023-01-19T03:45:40;1.10;99.90
5796;DHT22;2924;51.458;7.046;2023-01-19T03:48:07;1.10;99.90
5796;DHT22;2924;51.458;7.046;2023-01-19T03:50:33;1.10;99.90
5796;DHT22;2924;51.458;7.046;2023-01-19T03:53:03;1.20;99.90
5796;DHT22;2924;51.458;7.046;2023-01-19T03:55:29;1.20;99.90
5796;DHT22;2924;51.458;7.046;2023-01-19T03:57:55;1.20;99.90
5796;DHT22;2924;51.458;7.046;2023-01-19T04:00:20;1.20;99.90
5796;DHT22;2924;51.458;7.046;2023-01-19T04:02:46;1.20;99.90
5796;DHT22;2924;51.458;7.046;2023-01-19T04:05:11;1.30;99.90
5796;DHT22;2924;51.458;7.046;2023-01-19T04:07:38;1.20;99.90
5796;DHT22;2924;51.458;7.046;2023-01-19T04:10:04;1.20;99.90
5796;DHT22;2924;51.458;7.046;2023-01-19T04:12:30;1.10;99.90
5796;DHT22;2924;51.458;7.046;2023-01-19T04:14:56;1.10;99.90
5796;DHT22;2924;51.458;7.046;2023-01-19T04:17:21;1.00;99.90
5796;DHT22;2924;51.458;7.046;2023-01-19T04:19:47;0.90;99.90
5796;DHT22;2924;51.458;7.046;2023-01-19T04:22:13;0.80;99.90
5796;DHT22;2924;51.458;7.046;2023-01-19T04:24:38;0.70;99.90
5796;DHT22;2924;51.458;7.046;2023-01-19T04:27:04;0.60;99.90
5796;DHT22;2924;51.458;7.046;2023-01-19T04:29:29;0.50;99.90
5796;DHT22;2924;51.458;7.046;2023-01-19T04:31:55;0.40;99.90
5796;DHT22;2924;51.458;7.046;2023-01-19T04:34:21;0.30;99.90
5796;DHT22;2924;51.458;7.046;2023-01-19T04:36:46;0.30;99.90
5796;DHT22;2924;51.458;7.046;2023-01-19T04:39:15;0.30;99.90
5796;DHT22;2924;51.458;7.046;2023-01-19T04:41:41;0.30;99.90
5796;DHT22;2924;51.458;7.046;2023-01-19T04:44:06;0.30;99.90
5796;DHT22;2924;51.458;7.046;2023-01-19T04:46:32;0.30;99.90
5796;DHT22;2924;51.458;7.046;2023-01-19T04:48:58;0.30;99.90
5796;DHT22;2924;51.458;7.046;2023-01-19T04:51:23;0.20;99.90
5796;DHT22;2924;51.458;7.046;2023-01-19T04:53:49;0.20;99.90
5796;DHT22;2924;51.458;7.046;2023-01-19T04:56:14;0.20;99.90
5796;DHT22;2924;51.458;7.046;2023-01-19T04:58:40;0.30;99.90
5796;DHT22;2924;51.458;7.046;2023-01-19T05:01:07;0.30;99.90
5796;DHT22;2924;51.458;7.046;2023-01-19T05:03:33;0.20;99.90
5796;DHT22;2924;51.458;7.046;2023-01-19T05:05:59;0.20;99.90
5796;DHT22;2924;51.458;7.046;2023-01-19T05:08:24;0.20;99.90
5796;DHT22;2924;51.458;7.046;2023-01-19T05:10:50;0.20;99.90
5796;DHT22;2924;51.458;7.046;2023-01-19T05:13:16;0.20;99.90
5796;DHT22;2924;51.458;7.046;2023-01-19T05:15:42;0.20;99.90
5796;DHT22;2924;51.458;7.046;2023-01-19T05:18:07;0.20;99.90
5796;DHT22;2924;51.458;7.046;2023-01-19T05:20:33;0.20;99.90
5796;DHT22;2924;51.458;7.046;2023-01-19T05:22:59;0.20;99.90
5796;DHT22;2924;51.458;7.046;2023-01-19T05:25:25;0.30;99.90
5796;DHT22;2924;51.458;7.046;2023-01-19T05:27:50;0.20;99.90
5796;DHT22;2924;51.458;7.046;2023-01-19T05:30:16;0.30;99.90
5796;DHT22;2924;51.458;7.046;2023-01-19T05:32:42;0.20;99.90
5796;DHT22;2924;51.458;7.046;2023-01-19T05:35:08;0.20;99.90
5796;DHT22;2924;51.458;7.046;2023-01-19T05:37:34;0.20;99.90
5796;DHT22;2924;51.458;7.046;2023-01-19T05:39:59;0.20;99.90
5796;DHT22;2924;51.458;7.046;2023-01-19T05:42:25;0.20;99.90
5796;DHT22;2924;51.458;7.046;2023-01-19T05:44:51;0.10;99.90
5796;DHT22;2924;51.458;7.046;2023-01-19T05:47:17;0.10;99.90
5796;DHT22;2924;51.458;7.046;2023-01-19T05:49:42;0.10;99.90
5796;DHT22;2924;51.458;7.046;2023-01-19T05:52:08;0.10;99.90
5796;DHT22;2924;51.458;7.046;2023-01-19T05:54:34;0.20;99.90
5796;DHT22;2924;51.458;7.046;2023-01-19T05:56:59;0.10;99.90
5796;DHT22;2924;51.458;7.046;2023-01-19T05:59:26;0.10;99.90
5796;DHT22;2924;51.458;7.046;2023-01-19T06:01:52;0.10;99.90
5796;DHT22;2924;51.458;7.046;2023-01-19T06:04:18;0.10;99.90
5796;DHT22;2924;51.458;7.046;2023-01-19T06:06:47;0.10;99.90
5796;DHT22;2924;51.458;7.046;2023-01-19T06:09:13;0.20;99.90
5796;DHT22;2924;51.458;7.046;2023-01-19T06:11:38;0.10;99.90
5796;DHT22;2924;51.458;7.046;2023-01-19T06:14:04;0.10;99.90
5796;DHT22;2924;51.458;7.046;2023-01-19T06:16:30;0.10;99.90
5796;DHT22;2924;51.458;7.046;2023-01-19T06:18:55;0.10;99.90
5796;DHT22;2924;51.458;7.046;2023-01-19T06:21:21;0.10;99.90
5796;DHT22;2924;51.458;7.046;2023-01-19T06:23:47;0.10;99.90
5796;DHT22;2924;51.458;7.046;2023-01-19T06:26:12;0.10;99.90
5796;DHT22;2924;51.458;7.046;2023-01-19T06:28:38;0.10;99.90
5796;DHT22;2924;51.458;7.046;2023-01-19T06:31:04;0.00;99.90
5796;DHT22;2924;51.458;7.046;2023-01-19T06:33:29;0.00;99.90
5796;DHT22;2924;51.458;7.046;2023-01-19T06:35:56;0.00;99.90
5796;DHT22;2924;51.458;7.046;2023-01-19T06:38:22;0.00;99.90
5796;DHT22;2924;51.458;7.046;2023-01-19T06:40:53;0.00;99.90
5796;DHT22;2924;51.458;7.046;2023-01-19T06:43:19;0.00;99.90
5796;DHT22;2924;51.458;7.046;2023-01-19T06:45:45;0.00;99.90
5796;DHT22;2924;51.458;7.046;2023-01-19T06:48:11;0.00;99.90
5796;DHT22;2924;51.458;7.046;2023-01-19T06:50:37;-0.10;99.90
5796;DHT22;2924;51.458;7.046;2023-01-19T06:53:02;0.00;99.90
5796;DHT22;2924;51.458;7.046;2023-01-19T06:55:28;0.00;99.90
5796;DHT22;2924;51.458;7.046;2023-01-19T06:57:57;0.00;99.90
5796;DHT22;2924;51.458;7.046;2023-01-19T07:00:24;0.00;99.90
5796;DHT22;2924;51.458;7.046;2023-01-19T07:02:50;0.00;99.90
5796;DHT22;2924;51.458;7.046;2023-01-19T07:05:15;0.00;99.90
5796;DHT22;2924;51.458;7.046;2023-01-19T07:07:41;0.00;99.90
5796;DHT22;2924;51.458;7.046;2023-01-19T07:10:10;0.00;99.90
5796;DHT22;2924;51.458;7.046;2023-01-19T07:12:37;0.00;99.90
5796;DHT22;2924;51.458;7.046;2023-01-19T07:15:04;0.00;99.90
5796;DHT22;2924;51.458;7.046;2023-01-19T07:17:30;0.10;99.90
5796;DHT22;2924;51.458;7.046;2023-01-19T07:19:55;0.10;99.90
5796;DHT22;2924;51.458;7.046;2023-01-19T07:22:21;0.10;99.90
5796;DHT22;2924;51.458;7.046;2023-01-19T07:24:47;0.10;99.90
5796;DHT22;2924;51.458;7.046;2023-01-19T07:27:12;0.20;99.90
5796;DHT22;2924;51.458;7.046;2023-01-19T07:29:39;0.20;99.90
5796;DHT22;2924;51.458;7.046;2023-01-19T07:32:05;0.20;99.90
5796;DHT22;2924;51.458;7.046;2023-01-19T07:34:30;0.10;99.90
5796;DHT22;2924;51.458;7.046;2023-01-19T07:36:56;0.10;99.90
5796;DHT22;2924;51.458;7.046;2023-01-19T07:39:21;0.20;99.90
5796;DHT22;2924;51.458;7.046;2023-01-19T07:41:47;0.20;99.90
5796;DHT22;2924;51.458;7.046;2023-01-19T07:44:13;0.20;99.90
5796;DHT22;2924;51.458;7.046;2023-01-19T07:46:39;0.20;99.90
5796;DHT22;2924;51.458;7.046;2023-01-19T07:49:05;0.20;99.90
5796;DHT22;2924;51.458;7.046;2023-01-19T07:51:31;0.20;99.90
5796;DHT22;2924;51.458;7.046;2023-01-19T07:53:56;0.30;99.90
5796;DHT22;2924;51.458;7.046;2023-01-19T07:56:22;0.30;99.90
5796;DHT22;2924;51.458;7.046;2023-01-19T07:58:49;0.30;99.90
5796;DHT22;2924;51.458;7.046;2023-01-19T08:01:16;0.30;99.90
5796;DHT22;2924;51.458;7.046;2023-01-19T08:03:43;0.30;99.90
5796;DHT22;2924;51.458;7.046;2023-01-19T08:06:19;0.30;99.90
5796;DHT22;2924;51.458;7.046;2023-01-19T08:08:45;0.30;99.90
5796;DHT22;2924;51.458;7.046;2023-01-19T08:11:11;0.30;99.90
5796;DHT22;2924;51.458;7.046;2023-01-19T08:13:36;0.40;99.90
5796;DHT22;2924;51.458;7.046;2023-01-19T08:16:02;0.40;99.90
5796;DHT22;2924;51.458;7.046;2023-01-19T08:18:29;0.40;99.90
5796;DHT22;2924;51.458;7.046;2023-01-19T08:20:57;0.40;99.90
5796;DHT22;2924;51.458;7.046;2023-01-19T08:23:23;0.40;99.90
5796;DHT22;2924;51.458;7.046;2023-01-19T08:25:48;0.40;99.90
5796;DHT22;2924;51.458;7.046;2023-01-19T08:28:15;0.50;99.90
5796;DHT22;2924;51.458;7.046;2023-01-19T08:30:41;0.40;99.90
5796;DHT22;2924;51.458;7.046;2023-01-19T08:33:12;0.50;99.90
5796;DHT22;2924;51.458;7.046;2023-01-19T08:35:39;0.50;99.90
5796;DHT22;2924;51.458;7.046;2023-01-19T08:38:06;0.50;99.90
5796;DHT22;2924;51.458;7.046;2023-01-19T08:40:35;0.50;99.90
5796;DHT22;2924;51.458;7.046;2023-01-19T08:43:03;0.50;99.90
5796;DHT22;2924;51.458;7.046;2023-01-19T08:45:30;0.50;99.90
5796;DHT22;2924;51.458;7.046;2023-01-19T08:47:56;0.50;99.90
5796;DHT22;2924;51.458;7.046;2023-01-19T08:50:24;0.60;99.90
5796;DHT22;2924;51.458;7.046;2023-01-19T08:52:50;0.50;99.90
5796;DHT22;2924;51.458;7.046;2023-01-19T08:55:16;0.50;99.90
5796;DHT22;2924;51.458;7.046;2023-01-19T08:57:42;0.60;99.90
5796;DHT22;2924;51.458;7.046;2023-01-19T09:00:08;0.60;99.90
5796;DHT22;2924;51.458;7.046;2023-01-19T09:02:36;0.60;99.90
5796;DHT22;2924;51.458;7.046;2023-01-19T09:05:01;0.60;99.90
5796;DHT22;2924;51.458;7.046;2023-01-19T09:07:29;0.60;99.90
5796;DHT22;2924;51.458;7.046;2023-01-19T09:09:54;0.60;99.90
5796;DHT22;2924;51.458;7.046;2023-01-19T09:12:20;0.60;99.90
5796;DHT22;2924;51.458;7.046;2023-01-19T09:14:46;0.60;99.90
5796;DHT22;2924;51.458;7.046;2023-01-19T09:17:11;0.70;99.90
5796;DHT22;2924;51.458;7.046;2023-01-19T09:19:39;0.70;99.90
5796;DHT22;2924;51.458;7.046;2023-01-19T09:22:05;0.70;99.90
5796;DHT22;2924;51.458;7.046;2023-01-19T09:24:31;0.80;99.90
5796;DHT22;2924;51.458;7.046;2023-01-19T09:26:57;0.80;99.90
5796;DHT22;2924;51.458;7.046;2023-01-19T09:29:23;0.80;99.90
5796;DHT22;2924;51.458;7.046;2023-01-19T09:31:48;0.90;99.90
5796;DHT22;2924;51.458;7.046;2023-01-19T09:34:14;0.80;99.90
5796;DHT22;2924;51.458;7.046;2023-01-19T09:36:40;0.90;99.90
5796;DHT22;2924;51.458;7.046;2023-01-19T09:39:05;0.90;99.90
5796;DHT22;2924;51.458;7.046;2023-01-19T09:41:33;1.00;99.90
5796;DHT22;2924;51.458;7.046;2023-01-19T09:43:59;1.00;99.90
5796;DHT22;2924;51.458;7.046;2023-01-19T09:46:36;1.00;99.90
5796;DHT22;2924;51.458;7.046;2023-01-19T09:51:51;1.10;99.90
5796;DHT22;2924;51.458;7.046;2023-01-19T09:54:21;1.10;99.90
5796;DHT22;2924;51.458;7.046;2023-01-19T09:56:49;1.20;99.90
5796;DHT22;2924;51.458;7.046;2023-01-19T09:59:30;1.10;99.90
5796;DHT22;2924;51.458;7.046;2023-01-19T10:18:25;1.20;99.90
5796;DHT22;2924;51.458;7.046;2023-01-19T10:21:05;1.10;99.90
5796;DHT22;2924;51.458;7.046;2023-01-19T10:26:23;1.20;99.90
5796;DHT22;2924;51.458;7.046;2023-01-19T10:28:52;1.20;99.90
5796;DHT22;2924;51.458;7.046;2023-01-19T10:31:21;1.20;99.90
5796;DHT22;2924;51.458;7.046;2023-01-19T10:33:48;1.20;99.90
5796;DHT22;2924;51.458;7.046;2023-01-19T10:36:20;1.30;99.90
5796;DHT22;2924;51.458;7.046;2023-01-19T10:38:47;1.40;99.90
5796;DHT22;2924;51.458;7.046;2023-01-19T10:41:25;1.30;99.90
5796;DHT22;2924;51.458;7.046;2023-01-19T10:44:03;1.40;99.90
5796;DHT22;2924;51.458;7.046;2023-01-19T10:46:46;1.50;99.90
5796;DHT22;2924;51.458;7.046;2023-01-19T10:49:27;1.50;99.90
5796;DHT22;2924;51.458;7.046;2023-01-19T10:51:53;1.70;99.90
5796;DHT22;2924;51.458;7.046;2023-01-19T10:54:21;1.80;99.90
5796;DHT22;2924;51.458;7.046;2023-01-19T10:56:55;1.90;99.90
5796;DHT22;2924;51.458;7.046;2023-01-19T11:04:50;1.80;99.90
5796;DHT22;2924;51.458;7.046;2023-01-19T11:13:03;1.80;99.90
5796;DHT22;2924;51.458;7.046;2023-01-19T11:15:34;1.80;99.90
5796;DHT22;2924;51.458;7.046;2023-01-19T11:18:05;1.80;99.90
5796;DHT22;2924;51.458;7.046;2023-01-19T11:20:50;1.80;99.90
5796;DHT22;2924;51.458;7.046;2023-01-19T11:25:59;1.90;99.90
5796;DHT22;2924;51.458;7.046;2023-01-19T11:28:35;1.90;99.90
5796;DHT22;2924;51.458;7.046;2023-01-19T11:31:18;1.80;99.90
5796;DHT22;2924;51.458;7.046;2023-01-19T11:33:50;1.70;99.90
5796;DHT22;2924;51.458;7.046;2023-01-19T11:38:44;1.60;99.90
5796;DHT22;2924;51.458;7.046;2023-01-19T11:41:32;1.60;99.90
5796;DHT22;2924;51.458;7.046;2023-01-19T11:44:16;1.60;99.90
5796;DHT22;2924;51.458;7.046;2023-01-19T11:46:44;1.60;99.90
5796;DHT22;2924;51.458;7.046;2023-01-19T11:49:57;1.50;99.90
5796;DHT22;2924;51.458;7.046;2023-01-19T11:52:37;1.60;99.90
5796;DHT22;2924;51.458;7.046;2023-01-19T11:57:51;1.70;99.90
5796;DHT22;2924;51.458;7.046;2023-01-19T12:00:22;1.70;99.90
5796;DHT22;2924;51.458;7.046;2023-01-19T12:02:52;1.70;99.90
5796;DHT22;2924;51.458;7.046;2023-01-19T12:05:21;1.70;99.90
5796;DHT22;2924;51.458;7.046;2023-01-19T12:07:47;1.70;99.90
5796;DHT22;2924;51.458;7.046;2023-01-19T12:10:19;1.80;99.90
5796;DHT22;2924;51.458;7.046;2023-01-19T12:12:47;1.80;99.90
5796;DHT22;2924;51.458;7.046;2023-01-19T12:15:32;1.80;99.90
5796;DHT22;2924;51.458;7.046;2023-01-19T12:18:00;1.80;99.90
5796;DHT22;2924;51.458;7.046;2023-01-19T12:20:36;1.90;99.90
5796;DHT22;2924;51.458;7.046;2023-01-19T12:23:17;1.90;99.90
5796;DHT22;2924;51.458;7.046;2023-01-19T12:28:46;2.10;99.90
5796;DHT22;2924;51.458;7.046;2023-01-19T12:31:20;2.20;99.90
5796;DHT22;2924;51.458;7.046;2023-01-19T12:33:46;2.20;99.90
5796;DHT22;2924;51.458;7.046;2023-01-19T12:46:43;2.20;99.90
5796;DHT22;2924;51.458;7.046;2023-01-19T12:51:44;2.10;99.90
5796;DHT22;2924;51.458;7.046;2023-01-19T12:54:24;2.20;99.90
5796;DHT22;2924;51.458;7.046;2023-01-19T12:56:57;2.20;99.90
5796;DHT22;2924;51.458;7.046;2023-01-19T12:59:25;2.20;99.90
5796;DHT22;2924;51.458;7.046;2023-01-19T13:13:31;2.30;99.90
5796;DHT22;2924;51.458;7.046;2023-01-19T13:18:43;2.40;99.90
5796;DHT22;2924;51.458;7.046;2023-01-19T13:21:10;2.40;99.90
5796;DHT22;2924;51.458;7.046;2023-01-19T13:26:31;2.70;99.90
5796;DHT22;2924;51.458;7.046;2023-01-19T13:29:06;2.90;99.90
5796;DHT22;2924;51.458;7.046;2023-01-19T13:31:39;3.00;99.90
5796;DHT22;2924;51.458;7.046;2023-01-19T13:37:03;2.90;99.90
5796;DHT22;2924;51.458;7.046;2023-01-19T13:39:35;2.90;99.90
5796;DHT22;2924;51.458;7.046;2023-01-19T13:42:05;2.80;99.90
5796;DHT22;2924;51.458;7.046;2023-01-19T13:44:41;2.80;99.90
5796;DHT22;2924;51.458;7.046;2023-01-19T13:47:14;2.90;99.90
5796;DHT22;2924;51.458;7.046;2023-01-19T13:49:44;2.90;99.90
5796;DHT22;2924;51.458;7.046;2023-01-19T13:52:13;2.90;99.90
5796;DHT22;2924;51.458;7.046;2023-01-19T13:57:31;2.80;99.90
5796;DHT22;2924;51.458;7.046;2023-01-19T14:02:26;2.80;99.90
5796;DHT22;2924;51.458;7.046;2023-01-19T14:04:51;2.90;99.90
5796;DHT22;2924;51.458;7.046;2023-01-19T14:07:19;2.90;99.90
5796;DHT22;2924;51.458;7.046;2023-01-19T14:10:10;2.90;99.90
5796;DHT22;2924;51.458;7.046;2023-01-19T14:12:37;2.70;99.90
5796;DHT22;2924;51.458;7.046;2023-01-19T14:15:04;2.60;99.90
5796;DHT22;2924;51.458;7.046;2023-01-19T14:17:35;2.40;99.90
5796;DHT22;2924;51.458;7.046;2023-01-19T14:20:01;2.30;99.90
5796;DHT22;2924;51.458;7.046;2023-01-19T14:22:44;2.20;99.90
5796;DHT22;2924;51.458;7.046;2023-01-19T14:25:34;2.20;99.90
5796;DHT22;2924;51.458;7.046;2023-01-19T14:30:54;2.30;99.90
5796;DHT22;2924;51.458;7.046;2023-01-19T14:33:34;2.30;99.90
5796;DHT22;2924;51.458;7.046;2023-01-19T14:38:45;2.20;99.90
5796;DHT22;2924;51.458;7.046;2023-01-19T14:41:12;2.10;99.90
5796;DHT22;2924;51.458;7.046;2023-01-19T14:43:46;2.20;99.90
5796;DHT22;2924;51.458;7.046;2023-01-19T14:46:18;2.30;99.90
5796;DHT22;2924;51.458;7.046;2023-01-19T14:48:46;2.30;99.90
5796;DHT22;2924;51.458;7.046;2023-01-19T14:51:17;2.30;99.90
5796;DHT22;2924;51.458;7.046;2023-01-19T14:53:49;2.30;99.90
5796;DHT22;2924;51.458;7.046;2023-01-19T14:56:30;2.20;99.90
5796;DHT22;2924;51.458;7.046;2023-01-19T14:58:58;2.10;99.90
5796;DHT22;2924;51.458;7.046;2023-01-19T15:01:24;2.20;99.90
5796;DHT22;2924;51.458;7.046;2023-01-19T15:03:53;2.20;99.90
5796;DHT22;2924;51.458;7.046;2023-01-19T15:06:22;2.20;99.90
5796;DHT22;2924;51.458;7.046;2023-01-19T15:08:48;2.20;99.90
5796;DHT22;2924;51.458;7.046;2023-01-19T15:11:34;2.20;99.90
5796;DHT22;2924;51.458;7.046;2023-01-19T15:14:00;2.10;99.90
5796;DHT22;2924;51.458;7.046;2023-01-19T15:16:28;2.20;99.90
5796;DHT22;2924;51.458;7.046;2023-01-19T15:18:54;2.20;99.90
5796;DHT22;2924;51.458;7.046;2023-01-19T15:21:21;2.20;99.90
5796;DHT22;2924;51.458;7.046;2023-01-19T15:23:53;2.10;99.90
5796;DHT22;2924;51.458;7.046;2023-01-19T15:26:21;2.00;99.90
5796;DHT22;2924;51.458;7.046;2023-01-19T15:28:47;1.90;99.90
5796;DHT22;2924;51.458;7.046;2023-01-19T15:31:19;1.90;99.90
5796;DHT22;2924;51.458;7.046;2023-01-19T15:33:45;1.90;99.90
5796;DHT22;2924;51.458;7.046;2023-01-19T15:36:16;1.70;99.90
5796;DHT22;2924;51.458;7.046;2023-01-19T15:38:42;1.50;99.90
5796;DHT22;2924;51.458;7.046;2023-01-19T15:41:27;1.50;99.90
5796;DHT22;2924;51.458;7.046;2023-01-19T15:43:54;1.40;99.90
5796;DHT22;2924;51.458;7.046;2023-01-19T15:46:21;1.40;99.90
5796;DHT22;2924;51.458;7.046;2023-01-19T15:48:48;1.30;99.90
5796;DHT22;2924;51.458;7.046;2023-01-19T15:51:16;1.30;99.90
5796;DHT22;2924;51.458;7.046;2023-01-19T15:53:42;1.30;99.90
5796;DHT22;2924;51.458;7.046;2023-01-19T15:56:17;1.30;99.90
5796;DHT22;2924;51.458;7.046;2023-01-19T15:58:43;1.20;99.90
5796;DHT22;2924;51.458;7.046;2023-01-19T16:01:12;1.10;99.90
5796;DHT22;2924;51.458;7.046;2023-01-19T16:03:38;1.10;99.90
5796;DHT22;2924;51.458;7.046;2023-01-19T16:06:04;1.10;99.90
5796;DHT22;2924;51.458;7.046;2023-01-19T16:08:29;1.10;99.90
5796;DHT22;2924;51.458;7.046;2023-01-19T16:10:55;1.00;99.90
5796;DHT22;2924;51.458;7.046;2023-01-19T16:13:21;1.00;99.90
5796;DHT22;2924;51.458;7.046;2023-01-19T16:15:46;1.00;99.90
5796;DHT22;2924;51.458;7.046;2023-01-19T16:18:12;1.00;99.90
5796;DHT22;2924;51.458;7.046;2023-01-19T16:20:38;1.00;99.90
5796;DHT22;2924;51.458;7.046;2023-01-19T16:23:04;1.00;99.90
5796;DHT22;2924;51.458;7.046;2023-01-19T16:25:30;0.90;99.90
5796;DHT22;2924;51.458;7.046;2023-01-19T16:27:56;0.90;99.90
5796;DHT22;2924;51.458;7.046;2023-01-19T16:30:22;0.90;99.90
5796;DHT22;2924;51.458;7.046;2023-01-19T16:32:48;0.80;99.90
5796;DHT22;2924;51.458;7.046;2023-01-19T16:35:14;0.80;99.90
5796;DHT22;2924;51.458;7.046;2023-01-19T16:37:40;0.80;99.90
5796;DHT22;2924;51.458;7.046;2023-01-19T16:40:06;0.80;99.90
5796;DHT22;2924;51.458;7.046;2023-01-19T16:42:32;0.70;99.90
5796;DHT22;2924;51.458;7.046;2023-01-19T16:44:58;0.70;99.90
5796;DHT22;2924;51.458;7.046;2023-01-19T16:47:24;0.70;99.90
5796;DHT22;2924;51.458;7.046;2023-01-19T16:49:50;0.80;99.90
5796;DHT22;2924;51.458;7.046;2023-01-19T16:52:15;0.80;99.90
5796;DHT22;2924;51.458;7.046;2023-01-19T16:54:42;0.80;99.90
5796;DHT22;2924;51.458;7.046;2023-01-19T16:57:08;0.80;99.90
5796;DHT22;2924;51.458;7.046;2023-01-19T16:59:35;0.90;99.90
5796;DHT22;2924;51.458;7.046;2023-01-19T17:02:01;0.80;99.90
5796;DHT22;2924;51.458;7.046;2023-01-19T17:04:26;1.00;99.90
5796;DHT22;2924;51.458;7.046;2023-01-19T17:06:53;1.00;99.90
5796;DHT22;2924;51.458;7.046;2023-01-19T17:09:19;1.00;99.90
5796;DHT22;2924;51.458;7.046;2023-01-19T17:11:45;1.10;99.90
5796;DHT22;2924;51.458;7.046;2023-01-19T17:14:17;1.10;99.90
5796;DHT22;2924;51.458;7.046;2023-01-19T17:16:44;1.10;99.90
5796;DHT22;2924;51.458;7.046;2023-01-19T17:19:17;1.10;99.90
5796;DHT22;2924;51.458;7.046;2023-01-19T17:21:44;1.10;99.90
5796;DHT22;2924;51.458;7.046;2023-01-19T17:24:10;1.10;99.90
5796;DHT22;2924;51.458;7.046;2023-01-19T17:26:36;1.20;99.90
5796;DHT22;2924;51.458;7.046;2023-01-19T17:29:06;1.20;99.90
5796;DHT22;2924;51.458;7.046;2023-01-19T17:31:33;1.20;99.90
5796;DHT22;2924;51.458;7.046;2023-01-19T17:33:59;1.20;99.90
5796;DHT22;2924;51.458;7.046;2023-01-19T17:36:26;1.20;99.90
5796;DHT22;2924;51.458;7.046;2023-01-19T17:38:57;1.20;99.90
5796;DHT22;2924;51.458;7.046;2023-01-19T17:41:28;1.10;99.90
5796;DHT22;2924;51.458;7.046;2023-01-19T17:43:54;1.20;99.90
5796;DHT22;2924;51.458;7.046;2023-01-19T17:46:22;1.10;99.90
5796;DHT22;2924;51.458;7.046;2023-01-19T17:51:17;1.10;99.90
5796;DHT22;2924;51.458;7.046;2023-01-19T17:53:43;1.20;99.90
5796;DHT22;2924;51.458;7.046;2023-01-19T17:56:11;1.30;99.90
5796;DHT22;2924;51.458;7.046;2023-01-19T17:58:38;1.30;99.90
5796;DHT22;2924;51.458;7.046;2023-01-19T18:01:21;1.30;99.90
5796;DHT22;2924;51.458;7.046;2023-01-19T18:03:47;1.20;99.90
5796;DHT22;2924;51.458;7.046;2023-01-19T18:06:13;1.20;99.90
5796;DHT22;2924;51.458;7.046;2023-01-19T18:08:44;1.20;99.90
5796;DHT22;2924;51.458;7.046;2023-01-19T18:11:11;1.20;99.90
5796;DHT22;2924;51.458;7.046;2023-01-19T18:13:37;1.10;99.90
5796;DHT22;2924;51.458;7.046;2023-01-19T18:16:06;1.00;99.90
5796;DHT22;2924;51.458;7.046;2023-01-19T18:18:32;0.90;99.90